Time;durP1;ratioP1;P1;durP2;ratioP2;P2;SDS_P1;SDS_P2;PMS_P1;PMS_P2;Temp;Humidity;BMP_temperature;BMP_pressure;BME280_temperature;BME280_humidity;BME280_pressure;Samples;Min_cycle;Max_cycle;Signal;HPM_P1;HPM_P2
2021/10/01 16:24:02;;;;;;;1999.90;999.90;;;;;;;12.71;100.00;100197.31;5110569;27;20399;-36
2021/10/01 16:26:28;;;;;;;1999.90;999.90;;;;;;;12.76;100.00;100204.63;5110109;28;20032;-36
2021/10/01 16:28:54;;;;;;;1999.90;999.90;;;;;;;12.76;100.00;100202.75;5109700;28;20035;-36
2021/10/01 16:31:20;;;;;;;1999.90;999.90;;;;;;;12.74;100.00;100212.09;5110036;28;20073;-37
2021/10/01 16:33:46;;;;;;;1999.90;999.90;;;;;;;12.67;100.00;100193.56;5109597;28;20424;-34
2021/10/01 16:36:12;;;;;;;1999.90;999.90;;;;;;;12.66;100.00;100194.59;5109586;28;20035;-34
2021/10/01 16:38:37;;;;;;;1999.90;999.90;;;;;;;12.62;100.00;100198.00;5109552;28;20457;-34
2021/10/01 16:41:03;;;;;;;1999.90;999.90;;;;;;;12.58;100.00;100197.69;5109502;28;20111;-34
2021/10/01 16:43:29;;;;;;;1999.90;999.90;;;;;;;12.51;100.00;100203.22;5109305;28;20039;-36
2021/10/01 16:45:55;;;;;;;1999.90;999.90;;;;;;;12.46;100.00;100200.44;5109692;28;20038;-35
2021/10/01 16:48:20;;;;;;;1999.90;999.90;;;;;;;12.43;100.00;100198.25;5109337;28;20433;-36
2021/10/01 16:50:46;;;;;;;1999.90;999.90;;;;;;;12.32;100.00;100185.78;5109325;28;20077;-36
2021/10/01 16:53:12;;;;;;;1999.90;999.90;;;;;;;12.28;100.00;100192.69;5109217;28;20036;-36
2021/10/01 16:55:37;;;;;;;1999.90;999.90;;;;;;;12.31;100.00;100189.53;5109230;28;20028;-36
2021/10/01 16:58:04;;;;;;;1999.90;999.90;;;;;;;12.29;99.45;100191.59;5109165;28;20032;-36
2021/10/01 17:00:32;;;;;;;1999.90;999.90;;;;;;;12.27;99.02;100194.53;5109108;28;20031;-36
2021/10/01 17:02:59;;;;;;;1999.90;999.90;;;;;;;12.28;99.84;100198.81;5109187;28;20031;-40
2021/10/01 17:05:27;;;;;;;1999.90;999.90;;;;;;;12.30;99.28;100187.91;5109023;28;20063;-41
2021/10/01 17:07:54;;;;;;;1999.90;999.90;;;;;;;12.31;99.20;100192.19;5108893;28;20028;-41
2021/10/01 17:10:20;;;;;;;1999.90;999.90;;;;;;;12.29;99.96;100187.09;5109236;28;20431;-41
2021/10/01 17:12:45;;;;;;;1999.90;999.90;;;;;;;12.33;99.07;100188.25;5108784;28;20027;-39
2021/10/01 17:15:11;;;;;;;1999.90;999.90;;;;;;;12.29;100.00;100192.44;5108837;28;20039;-41
2021/10/01 17:17:37;;;;;;;1999.90;999.90;;;;;;;12.24;99.00;100187.00;5109132;28;20031;-40
2021/10/01 17:20:04;;;;;;;1999.90;999.90;;;;;;;12.19;99.70;100174.38;5108733;28;20035;-41
2021/10/01 17:22:30;;;;;;;1999.90;999.90;;;;;;;12.21;98.23;100179.47;5108368;28;20089;-40
2021/10/01 17:24:57;;;;;;;1999.90;999.90;;;;;;;12.25;99.12;100192.09;5108900;28;20055;-41
2021/10/01 17:27:23;;;;;;;;;;;;;;;12.26;99.96;100190.25;5109335;28;20054;-42
2021/10/01 17:29:49;;;;;;;1999.90;999.90;;;;;;;12.20;100.00;100189.38;5108543;28;19915;-41
2021/10/01 17:32:14;;;;;;;1999.90;999.90;;;;;;;12.24;100.00;100193.19;5108480;28;20077;-41
2021/10/01 17:34:40;;;;;;;1999.90;999.90;;;;;;;12.24;100.00;100189.66;5097728;28;20035;-41
2021/10/01 17:37:06;;;;;;;1999.90;999.90;;;;;;;12.24;100.00;100187.00;5094921;28;20020;-41
2021/10/01 17:39:33;;;;;;;1999.90;999.90;;;;;;;12.18;100.00;100196.00;5094846;28;20024;-41
2021/10/01 17:41:59;;;;;;;1999.90;999.90;;;;;;;12.21;100.00;100184.81;5095003;28;20031;-41
2021/10/01 17:44:28;;;;;;;;;;;;;;;12.15;100.00;100183.91;5095073;28;20020;-41
2021/10/01 17:46:59;;;;;;;1999.90;999.90;;;;;;;12.16;100.00;100190.88;5094557;28;19927;-41
2021/10/01 17:49:25;;;;;;;1999.90;999.90;;;;;;;12.14;100.00;100186.84;5094595;28;20055;-41
2021/10/01 17:51:53;;;;;;;1999.90;999.90;;;;;;;12.18;100.00;100186.09;5094814;28;20024;-41
2021/10/01 17:54:20;;;;;;;1999.90;999.90;;;;;;;12.17;100.00;100189.84;5094386;28;20483;-41
2021/10/01 17:56:45;;;;;;;;;;;;;;;12.18;100.00;100183.44;5094879;28;20036;-42
2021/10/01 17:59:12;;;;;;;1999.90;999.90;;;;;;;12.14;100.00;100185.00;5094395;28;19961;-40
2021/10/01 18:01:38;;;;;;;1999.90;999.90;;;;;;;12.18;100.00;100187.97;5094557;28;20081;-41
2021/10/01 18:04:04;;;;;;;1999.90;999.90;;;;;;;12.22;100.00;100178.44;5094263;28;20040;-39
2021/10/01 18:06:31;;;;;;;1999.90;999.90;;;;;;;12.25;99.07;100175.25;5094323;28;20040;-41
2021/10/01 18:08:57;;;;;;;1999.90;999.90;;;;;;;12.18;98.61;100179.97;5094221;28;20093;-41
2021/10/01 18:11:24;;;;;;;1999.90;999.90;;;;;;;12.25;99.36;100175.25;5094297;28;20020;-39
2021/10/01 18:13:51;;;;;;;1999.90;999.90;;;;;;;12.31;100.00;100181.50;5094340;28;20024;-41
2021/10/01 18:16:17;;;;;;;1999.90;999.90;;;;;;;12.24;100.00;100187.00;5094025;28;20084;-41
2021/10/01 18:18:43;;;;;;;1999.90;999.90;;;;;;;12.32;100.00;100185.78;5094231;28;20036;-42
2021/10/01 18:21:09;;;;;;;1999.90;999.90;;;;;;;12.28;100.00;100179.31;5094139;28;20032;-41
2021/10/01 18:23:36;;;;;;;1999.90;999.90;;;;;;;12.33;100.00;100180.22;5093553;28;20048;-41
2021/10/01 18:26:03;;;;;;;1999.90;999.90;;;;;;;12.35;100.00;100174.63;5093908;28;20232;-41
2021/10/01 18:28:30;;;;;;;1999.90;999.90;;;;;;;12.32;100.00;100178.59;5093793;28;20024;-41
2021/10/01 18:30:57;;;;;;;1999.90;999.90;;;;;;;12.30;100.00;100182.56;5093794;28;20115;-41
2021/10/01 18:33:23;;;;;;;;;;;;;;;12.28;100.00;100190.81;5094487;28;20027;-41
2021/10/01 18:35:49;;;;;;;1999.90;999.90;;;;;;;12.25;100.00;100185.97;5093622;28;19927;-41
2021/10/01 18:38:17;;;;;;;1999.90;999.90;;;;;;;12.32;100.00;100172.41;5093960;28;20024;-41
2021/10/01 18:40:44;;;;;;;1999.90;999.90;;;;;;;12.34;100.00;100186.38;5093550;28;20028;-42
2021/10/01 18:43:12;;;;;;;1999.90;999.90;;;;;;;12.28;100.00;100193.47;5093744;28;20134;-41
2021/10/01 18:45:38;;;;;;;1999.90;999.90;;;;;;;12.32;100.00;100193.78;5092492;28;20036;-42
2021/10/01 18:48:05;;;;;;;1999.90;999.90;;;;;;;12.34;100.00;100179.16;5093479;28;20028;-42
2021/10/01 18:50:30;;;;;;;;;;;;;;;12.37;100.00;100185.88;5093856;28;20111;-41
2021/10/01 18:52:56;;;;;;;1999.90;999.90;;;;;;;12.26;100.00;100190.25;5093339;28;20002;-42
2021/10/01 18:55:22;;;;;;;1999.90;999.90;;;;;;;12.26;100.00;100184.91;5093246;28;20032;-41
2021/10/01 18:57:47;;;;;;;1999.90;999.90;;;;;;;12.28;100.00;100190.00;5093285;28;20035;-41
2021/10/01 19:00:13;;;;;;;1999.90;999.90;;;;;;;12.36;100.00;100179.72;5093231;28;20024;-41
2021/10/01 19:02:40;;;;;;;1999.90;999.90;;;;;;;12.34;100.00;100189.03;5093106;28;20036;-41
2021/10/01 19:05:08;;;;;;;1999.90;999.90;;;;;;;12.32;100.00;100183.94;5093364;28;20449;-42
2021/10/01 19:07:36;;;;;;;1999.90;999.90;;;;;;;12.37;100.00;100185.88;5093030;28;20032;-41
2021/10/01 19:10:03;;;;;;;1999.90;999.90;;;;;;;12.34;100.00;100184.50;5093031;28;20472;-41
2021/10/01 19:12:29;;;;;;;1999.90;999.90;;;;;;;12.35;100.00;100180.78;5093109;28;20392;-41
2021/10/01 19:14:55;;;;;;;1999.90;999.90;;;;;;;12.41;100.00;100192.34;5093211;28;20035;-40
2021/10/01 19:17:21;;;;;;;1999.90;999.90;;;;;;;12.41;100.00;100189.69;5093246;28;20414;-42
2021/10/01 19:19:46;;;;;;;1999.90;999.90;;;;;;;12.44;100.00;100189.19;5092873;28;20028;-41
2021/10/01 19:22:13;;;;;;;1999.90;999.90;;;;;;;12.41;100.00;100192.34;5092537;28;20058;-42
2021/10/01 19:24:44;;;;;;;1999.90;999.90;;;;;;;12.41;100.00;100192.34;5093066;28;20114;-42
2021/10/01 19:32:39;;;;;;;1999.90;999.90;;;;;;;12.30;100.00;100182.56;5093260;28;20031;-41
2021/10/01 19:35:04;;;;;;;;;;;;;;;12.29;100.00;100181.75;5092985;28;20054;-41
2021/10/01 19:37:30;;;;;;;1999.90;999.90;;;;;;;12.31;100.00;100190.31;5091287;28;19920;-42
2021/10/01 19:39:58;;;;;;;1999.90;999.90;;;;;;;12.29;100.00;100183.59;5092808;28;20104;-37
2021/10/01 19:42:24;;;;;;;1999.90;999.90;;;;;;;12.31;100.00;100194.88;5092359;28;20510;-38
2021/10/01 19:44:50;;;;;;;1999.90;999.90;;;;;;;12.28;100.00;100185.47;5092367;28;20048;-40
2021/10/01 19:47:16;;;;;;;1999.90;999.90;;;;;;;12.34;100.00;100179.16;5092457;28;20056;-40
2021/10/01 19:49:41;;;;;;;1999.90;999.90;;;;;;;12.35;100.00;100175.44;5092372;28;20028;-39
2021/10/01 19:52:09;;;;;;;1999.90;999.90;;;;;;;12.38;100.00;100177.59;5092650;28;20107;-39
2021/10/01 19:54:35;;;;;;;1999.90;999.90;;;;;;;12.33;100.00;100176.72;5092522;28;20407;-38
2021/10/01 19:57:00;;;;;;;1999.90;999.90;;;;;;;12.33;100.00;100171.38;5091903;28;20479;-39
2021/10/01 19:59:31;;;;;;;1999.90;999.90;;;;;;;12.29;100.00;100171.06;5092202;28;20115;-39
2021/10/01 20:01:59;;;;;;;1999.90;999.90;;;;;;;12.25;100.00;100173.41;5092410;28;20028;-39
2021/10/01 20:04:25;;;;;;;1999.90;999.90;;;;;;;12.24;100.00;100171.78;5092339;28;20024;-39
2021/10/01 20:06:50;;;;;;;1999.90;999.90;;;;;;;12.23;100.00;100172.00;5092022;28;20470;-40
2021/10/01 20:09:16;;;;;;;1999.90;999.90;;;;;;;12.06;100.00;100172.03;5092099;28;20028;-39
2021/10/01 20:11:42;;;;;;;1999.90;999.90;;;;;;;12.09;100.00;100160.84;5092050;28;20054;-38
2021/10/01 20:14:08;;;;;;;1999.90;999.90;;;;;;;12.10;100.00;100157.13;5091971;28;20024;-39
2021/10/01 20:16:34;;;;;;;1999.90;999.90;;;;;;;12.01;100.00;100154.06;5091973;28;20016;-38
2021/10/01 20:48:28;;;;;;;1999.90;999.90;;;;;;;11.87;100.00;100129.47;5092062;28;20103;-38
2021/10/01 20:51:02;;;;;;;1999.90;999.90;;;;;;;11.94;100.00;100133.91;5092503;28;20024;-39
2021/10/01 20:53:27;;;;;;;1999.90;999.90;;;;;;;11.97;100.00;100130.75;5091992;28;20060;-39
2021/10/01 20:55:54;;;;;;;1999.90;999.90;;;;;;;11.84;100.00;100127.28;5091559;28;20463;-37
2021/10/01 20:58:26;;;;;;;1999.90;999.90;;;;;;;11.81;100.00;100121.63;5091889;28;20083;-39
2021/10/01 21:37:06;;;;;;;1999.90;999.90;;;;;;;11.86;100.00;100092.34;5095449;28;20088;-40
2021/10/01 21:44:46;;;;;;;1999.90;999.90;;;;;;;11.81;100.00;100090.41;5092896;28;20120;-39
2021/10/01 21:50:01;;;;;;;1999.90;999.90;;;;;;;11.72;100.00;100081.19;5095242;28;20043;-39
2021/10/01 21:52:29;;;;;;;1999.90;999.90;;;;;;;11.78;100.00;100084.75;5094554;28;20028;-39
2021/10/01 21:54:55;;;;;;;1999.90;999.90;;;;;;;11.76;100.00;100087.66;5094454;28;20032;-39
2021/10/01 21:57:21;;;;;;;1999.90;999.90;;;;;;;11.74;100.00;100081.72;5094375;28;20040;-39
2021/10/01 21:59:50;;;;;;;1999.90;999.90;;;;;;;11.77;100.00;100070.56;5094421;28;20020;-38
2021/10/01 22:02:16;;;;;;;1999.90;999.90;;;;;;;11.76;100.00;100076.16;5094639;28;20082;-38
2021/10/01 22:13:23;;;;;;;1999.90;999.90;;;;;;;11.61;100.00;100074.03;5094210;28;20028;-39
2021/10/01 22:21:16;;;;;;;1999.90;999.90;;;;;;;11.61;100.00;100064.16;5094299;28;20035;-38
2021/10/01 22:23:43;;;;;;;1999.90;999.90;;;;;;;11.61;100.00;100072.16;5093707;28;20055;-39
2021/10/01 22:26:09;;;;;;;1999.90;999.90;;;;;;;11.65;100.00;100065.31;5094188;28;20024;-38
2021/10/01 22:28:35;;;;;;;1999.90;999.90;;;;;;;11.66;100.00;100069.59;5093899;28;20495;-38
2021/10/01 22:31:05;;;;;;;1999.90;999.90;;;;;;;11.60;100.00;100067.91;5093830;28;20020;-39
2021/10/01 22:33:32;;;;;;;1999.90;999.90;;;;;;;11.67;100.00;100067.72;5093784;28;20031;-39
2021/10/01 22:35:59;;;;;;;1999.90;999.90;;;;;;;11.70;100.00;100067.25;5093980;28;20024;-40
2021/10/01 22:38:25;;;;;;;1999.90;999.90;;;;;;;11.68;100.00;100070.16;5093993;28;20024;-39
2021/10/01 22:40:52;;;;;;;1999.90;999.90;;;;;;;11.70;100.00;100065.41;5093638;28;20032;-39
2021/10/01 22:43:21;;;;;;;1999.90;999.90;;;;;;;11.70;100.00;100062.72;5093492;28;20562;-39
2021/10/01 22:45:49;;;;;;;1999.90;999.90;;;;;;;11.71;100.00;100067.00;5093386;28;20480;-40
2021/10/01 22:48:20;;;;;;;1999.90;999.90;;;;;;;11.67;100.00;100067.72;5093798;28;20081;-39
2021/10/01 22:50:53;;;;;;;1999.90;999.90;;;;;;;11.69;100.00;100065.66;5093597;28;20035;-38
2021/10/01 22:53:20;;;;;;;1999.90;999.90;;;;;;;11.60;100.00;100065.22;5093439;28;20573;-40
2021/10/01 22:55:49;;;;;;;1999.90;999.90;;;;;;;11.59;100.00;100060.13;5093566;28;20103;-39
2021/10/01 22:58:18;;;;;;;1999.90;999.90;;;;;;;11.59;100.00;100062.81;5093620;28;20032;-38
2021/10/01 23:00:44;;;;;;;1999.90;999.90;;;;;;;11.56;100.00;100061.41;5093218;28;20020;-39
2021/10/01 23:03:11;;;;;;;1999.90;999.90;;;;;;;11.55;100.00;100062.47;5093137;28;20384;-39
2021/10/01 23:05:37;;;;;;;1999.90;999.90;;;;;;;11.45;100.00;100065.78;5093867;28;20028;-38
2021/10/01 23:08:05;;;;;;;;;;;;;;;11.47;100.00;100057.53;5093850;28;20023;-40
2021/10/01 23:10:44;;;;;;;1999.90;999.90;;;;;;;11.49;100.00;100055.44;5093051;28;20295;-38
2021/10/01 23:43:22;;;;;;;1999.90;999.90;;;;;;;11.31;100.00;100046.59;5092658;28;20424;-39
2021/10/01 23:51:04;;;;;;;1999.90;999.90;;;;;;;11.44;100.00;100048.16;5092976;28;20034;-39
